Portada
METAR-TAF:

METAR-TAF

Aeropuertos :

Hafar Al-Batin, Arabia Saudita

latitud: 27-54N, longitud: 045-32E, altitud: 413 m

METAR: falta

Hora: 02:49 (23:49 UTC)

Pronóstico

El informe se hizo hace 18 horas y 49 minutos, a las 05:00 UTC
Pronóstico válido del 24 a las 06 UTC al 24 a las 20 UTC
Viento 6 kt del suroeste con ráfagas de 16 kt
Visibilidad: 7000 m
Temporalmente
del 24 a las 06 UTC al 24 a las 14 UTC
Visibilidad: 4000 m
Polvo extendido, Ventisca alta de polvo
Evolucionando progresivamente
del 24 a las 18 UTC al 24 a las 20 UTC
Viento 8 kt del sur-sureste

TAF: OEKK 240500Z 2406/2420 22006G16KT 7000 NSC TEMPO 2406/2414 4000 DU BLDU BECMG 2418/2420 16008KT

Observaciones y pronósticos meteorológicos de más de 4000 aeropuertos (mensajes METAR y TAF).

Los puntos amarillos y rojos representan las estaciones disponibles.

Ponga el ratón en el punto deseado para ver el nombre de la estación.

Haga clic para ver las observaciones y los pronósticos meteorológicos.

Para cambiar el mapa : haga clic en los botones verdes con una cruz de color negro para hacer un zoom, en el botón verde con un guión para alejar o en las flechas verdes para mapas adyacentes.


METAR-TAF: